sensor_id;sensor_type;location;lat;lon;timestamp;P1;durP1;ratioP1;P2;durP2;ratioP2
17604;SDS011;8921;50.964;6.800;2023-09-12T00:00:39;12.23;;;8.93;;
17604;SDS011;8921;50.964;6.800;2023-09-12T00:03:07;13.30;;;8.77;;
17604;SDS011;8921;50.964;6.800;2023-09-12T00:05:35;17.63;;;8.90;;
17604;SDS011;8921;50.964;6.800;2023-09-12T00:08:04;15.90;;;9.57;;
17604;SDS011;8921;50.964;6.800;2023-09-12T00:10:32;17.23;;;9.60;;
17604;SDS011;8921;50.964;6.800;2023-09-12T00:13:00;18.40;;;10.80;;
17604;SDS011;8921;50.964;6.800;2023-09-12T00:15:29;17.13;;;12.40;;
17604;SDS011;8921;50.964;6.800;2023-09-12T00:17:57;19.33;;;11.70;;
17604;SDS011;8921;50.964;6.800;2023-09-12T00:20:25;21.30;;;14.57;;
17604;SDS011;8921;50.964;6.800;2023-09-12T00:22:53;18.30;;;13.33;;
17604;SDS011;8921;50.964;6.800;2023-09-12T00:25:22;24.60;;;14.63;;
17604;SDS011;8921;50.964;6.800;2023-09-12T00:27:50;22.00;;;15.00;;
17604;SDS011;8921;50.964;6.800;2023-09-12T00:30:18;20.43;;;15.03;;
17604;SDS011;8921;50.964;6.800;2023-09-12T00:32:46;19.27;;;12.20;;
17604;SDS011;8921;50.964;6.800;2023-09-12T00:35:15;18.43;;;14.33;;
17604;SDS011;8921;50.964;6.800;2023-09-12T00:37:43;20.30;;;13.33;;
17604;SDS011;8921;50.964;6.800;2023-09-12T00:40:11;20.67;;;13.03;;
17604;SDS011;8921;50.964;6.800;2023-09-12T00:42:40;20.47;;;14.13;;
17604;SDS011;8921;50.964;6.800;2023-09-12T00:45:08;21.27;;;13.80;;
17604;SDS011;8921;50.964;6.800;2023-09-12T00:47:36;21.20;;;13.47;;
17604;SDS011;8921;50.964;6.800;2023-09-12T00:50:05;20.53;;;14.10;;
17604;SDS011;8921;50.964;6.800;2023-09-12T00:52:34;20.73;;;14.67;;
17604;SDS011;8921;50.964;6.800;2023-09-12T00:55:02;24.17;;;14.50;;
17604;SDS011;8921;50.964;6.800;2023-09-12T00:57:30;21.77;;;15.30;;
17604;SDS011;8921;50.964;6.800;2023-09-12T00:59:58;22.60;;;14.77;;
17604;SDS011;8921;50.964;6.800;2023-09-12T01:02:26;18.57;;;14.60;;
17604;SDS011;8921;50.964;6.800;2023-09-12T01:04:55;23.07;;;15.83;;
17604;SDS011;8921;50.964;6.800;2023-09-12T01:07:23;20.57;;;14.23;;
17604;SDS011;8921;50.964;6.800;2023-09-12T01:09:51;20.77;;;15.83;;
17604;SDS011;8921;50.964;6.800;2023-09-12T01:12:20;25.93;;;15.30;;
17604;SDS011;8921;50.964;6.800;2023-09-12T01:14:48;22.90;;;14.97;;
17604;SDS011;8921;50.964;6.800;2023-09-12T01:17:16;21.80;;;16.40;;
17604;SDS011;8921;50.964;6.800;2023-09-12T01:19:44;23.60;;;16.77;;
17604;SDS011;8921;50.964;6.800;2023-09-12T01:22:21;20.30;;;16.30;;
17604;SDS011;8921;50.964;6.800;2023-09-12T01:26:00;26.40;;;16.50;;
17604;SDS011;8921;50.964;6.800;2023-09-12T01:27:57;24.37;;;17.53;;
17604;SDS011;8921;50.964;6.800;2023-09-12T01:30:25;27.23;;;18.10;;
17604;SDS011;8921;50.964;6.800;2023-09-12T01:32:53;22.43;;;17.00;;
17604;SDS011;8921;50.964;6.800;2023-09-12T01:35:22;25.80;;;17.67;;
17604;SDS011;8921;50.964;6.800;2023-09-12T01:37:50;30.33;;;19.10;;
17604;SDS011;8921;50.964;6.800;2023-09-12T01:40:19;30.67;;;18.10;;
17604;SDS011;8921;50.964;6.800;2023-09-12T01:42:46;29.60;;;17.83;;
17604;SDS011;8921;50.964;6.800;2023-09-12T01:45:16;25.87;;;17.70;;
17604;SDS011;8921;50.964;6.800;2023-09-12T01:47:43;28.13;;;18.20;;
17604;SDS011;8921;50.964;6.800;2023-09-12T01:50:12;26.50;;;20.03;;
17604;SDS011;8921;50.964;6.800;2023-09-12T01:52:40;29.87;;;17.93;;
17604;SDS011;8921;50.964;6.800;2023-09-12T01:55:08;25.85;;;17.85;;
17604;SDS011;8921;50.964;6.800;2023-09-12T01:57:36;24.60;;;16.97;;
17604;SDS011;8921;50.964;6.800;2023-09-12T02:00:04;26.60;;;18.33;;
17604;SDS011;8921;50.964;6.800;2023-09-12T02:02:33;27.13;;;18.90;;
17604;SDS011;8921;50.964;6.800;2023-09-12T02:05:11;29.73;;;20.47;;
17604;SDS011;8921;50.964;6.800;2023-09-12T02:07:40;29.30;;;18.50;;
17604;SDS011;8921;50.964;6.800;2023-09-12T02:10:07;29.40;;;19.30;;
17604;SDS011;8921;50.964;6.800;2023-09-12T02:12:35;24.30;;;18.17;;
17604;SDS011;8921;50.964;6.800;2023-09-12T02:15:04;27.97;;;19.17;;
17604;SDS011;8921;50.964;6.800;2023-09-12T02:17:32;25.93;;;18.43;;
17604;SDS011;8921;50.964;6.800;2023-09-12T02:20:00;23.63;;;16.60;;
17604;SDS011;8921;50.964;6.800;2023-09-12T02:22:29;29.27;;;18.03;;
17604;SDS011;8921;50.964;6.800;2023-09-12T02:24:57;24.63;;;16.90;;
17604;SDS011;8921;50.964;6.800;2023-09-12T02:27:25;29.77;;;17.57;;
17604;SDS011;8921;50.964;6.800;2023-09-12T02:29:54;27.37;;;19.23;;
17604;SDS011;8921;50.964;6.800;2023-09-12T02:32:22;29.47;;;20.50;;
17604;SDS011;8921;50.964;6.800;2023-09-12T02:34:50;28.20;;;19.07;;
17604;SDS011;8921;50.964;6.800;2023-09-12T02:37:19;29.83;;;20.30;;
17604;SDS011;8921;50.964;6.800;2023-09-12T02:39:47;31.63;;;21.33;;
17604;SDS011;8921;50.964;6.800;2023-09-12T02:42:15;30.03;;;20.13;;
17604;SDS011;8921;50.964;6.800;2023-09-12T02:44:43;31.20;;;20.27;;
17604;SDS011;8921;50.964;6.800;2023-09-12T02:47:12;26.50;;;19.60;;
17604;SDS011;8921;50.964;6.800;2023-09-12T02:49:40;29.13;;;19.43;;
17604;SDS011;8921;50.964;6.800;2023-09-12T02:52:08;29.10;;;19.00;;
17604;SDS011;8921;50.964;6.800;2023-09-12T02:54:36;28.83;;;20.83;;
17604;SDS011;8921;50.964;6.800;2023-09-12T02:57:05;31.40;;;20.33;;
17604;SDS011;8921;50.964;6.800;2023-09-12T02:59:33;31.23;;;20.57;;
17604;SDS011;8921;50.964;6.800;2023-09-12T03:02:01;30.67;;;19.50;;
17604;SDS011;8921;50.964;6.800;2023-09-12T03:04:29;30.80;;;19.97;;
17604;SDS011;8921;50.964;6.800;2023-09-12T03:06:58;33.90;;;19.60;;
17604;SDS011;8921;50.964;6.800;2023-09-12T03:09:26;28.43;;;19.57;;
17604;SDS011;8921;50.964;6.800;2023-09-12T03:11:54;32.50;;;19.87;;
17604;SDS011;8921;50.964;6.800;2023-09-12T03:14:23;27.47;;;19.97;;
17604;SDS011;8921;50.964;6.800;2023-09-12T03:16:51;32.63;;;20.90;;
17604;SDS011;8921;50.964;6.800;2023-09-12T03:19:19;25.27;;;19.47;;
17604;SDS011;8921;50.964;6.800;2023-09-12T03:21:47;29.07;;;19.87;;
17604;SDS011;8921;50.964;6.800;2023-09-12T03:24:16;26.07;;;17.87;;
17604;SDS011;8921;50.964;6.800;2023-09-12T03:26:44;29.67;;;19.87;;
17604;SDS011;8921;50.964;6.800;2023-09-12T03:29:12;29.00;;;19.13;;
17604;SDS011;8921;50.964;6.800;2023-09-12T03:31:40;26.00;;;17.80;;
17604;SDS011;8921;50.964;6.800;2023-09-12T03:34:09;28.43;;;18.03;;
17604;SDS011;8921;50.964;6.800;2023-09-12T03:36:37;27.27;;;17.67;;
17604;SDS011;8921;50.964;6.800;2023-09-12T03:39:05;23.83;;;18.33;;
17604;SDS011;8921;50.964;6.800;2023-09-12T03:41:34;23.57;;;15.83;;
17604;SDS011;8921;50.964;6.800;2023-09-12T03:44:02;24.80;;;16.53;;
17604;SDS011;8921;50.964;6.800;2023-09-12T03:46:30;23.63;;;15.30;;
17604;SDS011;8921;50.964;6.800;2023-09-12T03:48:58;21.60;;;16.20;;
17604;SDS011;8921;50.964;6.800;2023-09-12T03:51:27;19.70;;;14.27;;
17604;SDS011;8921;50.964;6.800;2023-09-12T03:53:55;23.50;;;15.37;;
17604;SDS011;8921;50.964;6.800;2023-09-12T03:56:23;24.00;;;15.60;;
17604;SDS011;8921;50.964;6.800;2023-09-12T03:58:51;29.33;;;14.10;;
17604;SDS011;8921;50.964;6.800;2023-09-12T04:01:20;23.00;;;15.07;;
17604;SDS011;8921;50.964;6.800;2023-09-12T04:03:48;21.20;;;14.40;;
17604;SDS011;8921;50.964;6.800;2023-09-12T04:06:16;25.67;;;15.23;;
17604;SDS011;8921;50.964;6.800;2023-09-12T04:08:45;20.93;;;14.20;;
17604;SDS011;8921;50.964;6.800;2023-09-12T04:11:13;20.63;;;13.40;;
17604;SDS011;8921;50.964;6.800;2023-09-12T04:13:41;21.10;;;13.27;;
17604;SDS011;8921;50.964;6.800;2023-09-12T04:16:09;21.10;;;13.73;;
17604;SDS011;8921;50.964;6.800;2023-09-12T04:18:38;24.27;;;14.97;;
17604;SDS011;8921;50.964;6.800;2023-09-12T04:21:06;22.67;;;13.83;;
17604;SDS011;8921;50.964;6.800;2023-09-12T04:23:34;23.30;;;14.27;;
17604;SDS011;8921;50.964;6.800;2023-09-12T04:26:02;20.87;;;14.40;;
17604;SDS011;8921;50.964;6.800;2023-09-12T04:28:31;28.93;;;14.50;;
17604;SDS011;8921;50.964;6.800;2023-09-12T04:31:02;22.03;;;14.50;;
17604;SDS011;8921;50.964;6.800;2023-09-12T04:33:30;23.10;;;16.20;;
17604;SDS011;8921;50.964;6.800;2023-09-12T04:36:01;18.27;;;13.70;;
17604;SDS011;8921;50.964;6.800;2023-09-12T04:38:29;22.17;;;14.27;;
17604;SDS011;8921;50.964;6.800;2023-09-12T04:40:59;19.60;;;14.43;;
17604;SDS011;8921;50.964;6.800;2023-09-12T04:43:26;22.07;;;14.17;;
17604;SDS011;8921;50.964;6.800;2023-09-12T04:45:54;19.17;;;13.33;;
17604;SDS011;8921;50.964;6.800;2023-09-12T04:48:22;22.10;;;12.70;;
17604;SDS011;8921;50.964;6.800;2023-09-12T04:50:50;17.43;;;13.37;;
17604;SDS011;8921;50.964;6.800;2023-09-12T04:53:19;18.80;;;13.17;;
17604;SDS011;8921;50.964;6.800;2023-09-12T04:55:47;18.47;;;12.60;;
17604;SDS011;8921;50.964;6.800;2023-09-12T04:58:15;17.67;;;11.90;;
17604;SDS011;8921;50.964;6.800;2023-09-12T05:00:44;14.20;;;11.10;;
17604;SDS011;8921;50.964;6.800;2023-09-12T05:03:12;19.77;;;12.23;;
17604;SDS011;8921;50.964;6.800;2023-09-12T05:05:40;15.00;;;10.53;;
17604;SDS011;8921;50.964;6.800;2023-09-12T05:08:08;15.50;;;10.80;;
17604;SDS011;8921;50.964;6.800;2023-09-12T05:10:37;19.20;;;11.93;;
17604;SDS011;8921;50.964;6.800;2023-09-12T05:13:08;18.93;;;13.33;;
17604;SDS011;8921;50.964;6.800;2023-09-12T05:15:37;18.07;;;12.07;;
17604;SDS011;8921;50.964;6.800;2023-09-12T05:18:07;21.27;;;12.53;;
17604;SDS011;8921;50.964;6.800;2023-09-12T05:20:36;18.20;;;12.37;;
17604;SDS011;8921;50.964;6.800;2023-09-12T05:23:04;18.77;;;14.60;;
17604;SDS011;8921;50.964;6.800;2023-09-12T05:25:32;17.10;;;12.87;;
17604;SDS011;8921;50.964;6.800;2023-09-12T05:28:00;20.90;;;16.33;;
17604;SDS011;8921;50.964;6.800;2023-09-12T05:30:29;17.90;;;13.00;;
17604;SDS011;8921;50.964;6.800;2023-09-12T05:32:57;19.20;;;13.50;;
17604;SDS011;8921;50.964;6.800;2023-09-12T05:35:25;20.63;;;12.97;;
17604;SDS011;8921;50.964;6.800;2023-09-12T05:37:54;16.63;;;13.80;;
17604;SDS011;8921;50.964;6.800;2023-09-12T05:40:22;20.57;;;14.80;;
17604;SDS011;8921;50.964;6.800;2023-09-12T05:42:50;20.53;;;12.63;;
17604;SDS011;8921;50.964;6.800;2023-09-12T05:45:18;20.47;;;14.20;;
17604;SDS011;8921;50.964;6.800;2023-09-12T05:47:47;23.50;;;15.27;;
17604;SDS011;8921;50.964;6.800;2023-09-12T05:50:15;22.43;;;16.13;;
17604;SDS011;8921;50.964;6.800;2023-09-12T05:52:43;20.70;;;14.83;;
17604;SDS011;8921;50.964;6.800;2023-09-12T05:55:11;22.93;;;14.70;;
17604;SDS011;8921;50.964;6.800;2023-09-12T05:57:40;26.57;;;16.43;;
17604;SDS011;8921;50.964;6.800;2023-09-12T06:00:08;27.33;;;18.30;;
17604;SDS011;8921;50.964;6.800;2023-09-12T06:02:40;31.73;;;18.37;;
17604;SDS011;8921;50.964;6.800;2023-09-12T06:05:08;29.13;;;20.03;;
17604;SDS011;8921;50.964;6.800;2023-09-12T06:07:36;36.40;;;23.20;;
17604;SDS011;8921;50.964;6.800;2023-09-12T06:10:05;34.87;;;22.40;;
17604;SDS011;8921;50.964;6.800;2023-09-12T06:12:33;37.77;;;25.90;;
17604;SDS011;8921;50.964;6.800;2023-09-12T06:15:02;34.10;;;23.00;;
17604;SDS011;8921;50.964;6.800;2023-09-12T06:17:32;42.70;;;24.47;;
17604;SDS011;8921;50.964;6.800;2023-09-12T06:20:01;44.43;;;27.43;;
17604;SDS011;8921;50.964;6.800;2023-09-12T06:22:29;34.87;;;22.47;;
17604;SDS011;8921;50.964;6.800;2023-09-12T06:24:57;34.23;;;23.33;;
17604;SDS011;8921;50.964;6.800;2023-09-12T06:30:07;42.57;;;25.00;;
17604;SDS011;8921;50.964;6.800;2023-09-12T06:32:35;35.43;;;23.43;;
17604;SDS011;8921;50.964;6.800;2023-09-12T06:35:03;39.43;;;24.47;;
17604;SDS011;8921;50.964;6.800;2023-09-12T06:37:32;35.63;;;24.63;;
17604;SDS011;8921;50.964;6.800;2023-09-12T06:40:00;38.20;;;25.57;;
17604;SDS011;8921;50.964;6.800;2023-09-12T06:42:29;32.73;;;24.60;;
17604;SDS011;8921;50.964;6.800;2023-09-12T06:44:57;34.10;;;22.27;;
17604;SDS011;8921;50.964;6.800;2023-09-12T06:47:25;34.10;;;20.07;;
17604;SDS011;8921;50.964;6.800;2023-09-12T06:49:53;32.40;;;21.27;;
17604;SDS011;8921;50.964;6.800;2023-09-12T06:52:22;28.87;;;20.60;;
17604;SDS011;8921;50.964;6.800;2023-09-12T06:54:50;30.27;;;21.67;;
17604;SDS011;8921;50.964;6.800;2023-09-12T06:57:18;31.43;;;22.47;;
17604;SDS011;8921;50.964;6.800;2023-09-12T06:59:47;31.00;;;23.57;;
17604;SDS011;8921;50.964;6.800;2023-09-12T07:02:15;29.20;;;17.97;;
17604;SDS011;8921;50.964;6.800;2023-09-12T07:04:43;30.13;;;21.03;;
17604;SDS011;8921;50.964;6.800;2023-09-12T07:07:11;27.47;;;20.10;;
17604;SDS011;8921;50.964;6.800;2023-09-12T07:09:40;31.30;;;20.23;;
17604;SDS011;8921;50.964;6.800;2023-09-12T07:12:08;30.17;;;20.57;;
17604;SDS011;8921;50.964;6.800;2023-09-12T07:14:36;25.47;;;18.97;;
17604;SDS011;8921;50.964;6.800;2023-09-12T07:17:05;24.03;;;17.87;;
17604;SDS011;8921;50.964;6.800;2023-09-12T07:19:33;26.93;;;16.77;;
17604;SDS011;8921;50.964;6.800;2023-09-12T07:22:01;24.80;;;16.07;;
17604;SDS011;8921;50.964;6.800;2023-09-12T07:24:30;21.27;;;16.43;;
17604;SDS011;8921;50.964;6.800;2023-09-12T07:26:58;24.67;;;15.40;;
17604;SDS011;8921;50.964;6.800;2023-09-12T07:29:26;21.93;;;15.50;;
17604;SDS011;8921;50.964;6.800;2023-09-12T07:31:54;18.30;;;13.13;;
17604;SDS011;8921;50.964;6.800;2023-09-12T07:34:23;25.27;;;14.33;;
17604;SDS011;8921;50.964;6.800;2023-09-12T07:36:51;18.70;;;12.83;;
17604;SDS011;8921;50.964;6.800;2023-09-12T07:39:19;19.57;;;12.73;;
17604;SDS011;8921;50.964;6.800;2023-09-12T07:41:47;22.03;;;12.03;;
17604;SDS011;8921;50.964;6.800;2023-09-12T07:44:16;16.63;;;10.50;;
17604;SDS011;8921;50.964;6.800;2023-09-12T07:46:44;17.53;;;12.27;;
17604;SDS011;8921;50.964;6.800;2023-09-12T07:49:12;19.00;;;10.87;;
17604;SDS011;8921;50.964;6.800;2023-09-12T07:51:41;15.23;;;9.83;;
17604;SDS011;8921;50.964;6.800;2023-09-12T07:54:09;13.73;;;9.63;;
17604;SDS011;8921;50.964;6.800;2023-09-12T07:56:37;12.57;;;9.40;;
17604;SDS011;8921;50.964;6.800;2023-09-12T07:59:05;11.70;;;7.87;;
17604;SDS011;8921;50.964;6.800;2023-09-12T08:01:34;15.57;;;8.20;;
17604;SDS011;8921;50.964;6.800;2023-09-12T08:04:02;9.17;;;6.57;;
17604;SDS011;8921;50.964;6.800;2023-09-12T08:06:31;10.90;;;7.03;;
17604;SDS011;8921;50.964;6.800;2023-09-12T08:08:59;9.77;;;6.20;;
17604;SDS011;8921;50.964;6.800;2023-09-12T08:11:27;11.60;;;8.00;;
17604;SDS011;8921;50.964;6.800;2023-09-12T08:13:55;10.50;;;7.03;;
17604;SDS011;8921;50.964;6.800;2023-09-12T08:16:24;9.87;;;6.93;;
17604;SDS011;8921;50.964;6.800;2023-09-12T08:18:52;10.33;;;6.90;;
17604;SDS011;8921;50.964;6.800;2023-09-12T08:21:20;13.03;;;6.80;;
17604;SDS011;8921;50.964;6.800;2023-09-12T08:23:48;14.10;;;7.50;;
17604;SDS011;8921;50.964;6.800;2023-09-12T08:26:17;12.97;;;8.03;;
17604;SDS011;8921;50.964;6.800;2023-09-12T08:28:45;11.90;;;7.37;;
17604;SDS011;8921;50.964;6.800;2023-09-12T08:31:13;12.90;;;7.20;;
17604;SDS011;8921;50.964;6.800;2023-09-12T08:33:42;10.63;;;7.20;;
17604;SDS011;8921;50.964;6.800;2023-09-12T08:36:10;10.97;;;6.07;;
17604;SDS011;8921;50.964;6.800;2023-09-12T08:38:38;10.60;;;6.57;;
17604;SDS011;8921;50.964;6.800;2023-09-12T08:41:06;13.03;;;7.30;;
17604;SDS011;8921;50.964;6.800;2023-09-12T08:43:35;12.40;;;6.57;;
17604;SDS011;8921;50.964;6.800;2023-09-12T08:46:03;9.77;;;6.87;;
17604;SDS011;8921;50.964;6.800;2023-09-12T08:48:32;12.20;;;6.17;;
17604;SDS011;8921;50.964;6.800;2023-09-12T08:51:00;10.23;;;6.17;;
17604;SDS011;8921;50.964;6.800;2023-09-12T08:53:28;11.13;;;6.10;;
17604;SDS011;8921;50.964;6.800;2023-09-12T08:55:56;8.70;;;6.00;;
17604;SDS011;8921;50.964;6.800;2023-09-12T08:58:25;10.00;;;5.77;;
17604;SDS011;8921;50.964;6.800;2023-09-12T09:00:53;9.90;;;5.87;;
17604;SDS011;8921;50.964;6.800;2023-09-12T09:03:21;8.97;;;6.00;;
17604;SDS011;8921;50.964;6.800;2023-09-12T09:05:49;9.93;;;5.03;;
17604;SDS011;8921;50.964;6.800;2023-09-12T09:08:18;7.37;;;4.83;;
17604;SDS011;8921;50.964;6.800;2023-09-12T09:10:58;7.60;;;5.77;;
17604;SDS011;8921;50.964;6.800;2023-09-12T09:13:29;12.20;;;7.33;;
17604;SDS011;8921;50.964;6.800;2023-09-12T09:16:13;10.50;;;7.10;;
17604;SDS011;8921;50.964;6.800;2023-09-12T09:18:57;13.40;;;8.80;;
17604;SDS011;8921;50.964;6.800;2023-09-12T09:21:25;11.93;;;7.90;;
17604;SDS011;8921;50.964;6.800;2023-09-12T09:23:53;11.23;;;7.90;;
17604;SDS011;8921;50.964;6.800;2023-09-12T09:26:21;14.27;;;7.70;;
17604;SDS011;8921;50.964;6.800;2023-09-12T09:29:12;10.90;;;7.37;;
17604;SDS011;8921;50.964;6.800;2023-09-12T09:31:40;10.17;;;6.47;;
17604;SDS011;8921;50.964;6.800;2023-09-12T09:34:13;10.83;;;6.70;;
17604;SDS011;8921;50.964;6.800;2023-09-12T09:36:43;8.20;;;6.07;;
17604;SDS011;8921;50.964;6.800;2023-09-12T09:39:09;9.73;;;6.80;;
17604;SDS011;8921;50.964;6.800;2023-09-12T09:41:37;10.50;;;5.57;;
17604;SDS011;8921;50.964;6.800;2023-09-12T09:44:07;11.40;;;5.17;;
17604;SDS011;8921;50.964;6.800;2023-09-12T09:46:37;10.23;;;5.50;;
17604;SDS011;8921;50.964;6.800;2023-09-12T09:49:05;8.60;;;4.63;;
17604;SDS011;8921;50.964;6.800;2023-09-12T09:51:33;8.50;;;5.00;;
17604;SDS011;8921;50.964;6.800;2023-09-12T09:54:01;8.87;;;6.23;;
17604;SDS011;8921;50.964;6.800;2023-09-12T09:56:29;6.87;;;3.57;;
17604;SDS011;8921;50.964;6.800;2023-09-12T09:58:58;6.90;;;4.07;;
17604;SDS011;8921;50.964;6.800;2023-09-12T10:01:27;8.37;;;4.80;;
17604;SDS011;8921;50.964;6.800;2023-09-12T10:03:58;7.87;;;5.07;;
17604;SDS011;8921;50.964;6.800;2023-09-12T10:06:23;10.00;;;5.77;;
17604;SDS011;8921;50.964;6.800;2023-09-12T10:08:51;10.77;;;4.53;;
17604;SDS011;8921;50.964;6.800;2023-09-12T10:11:23;14.23;;;4.93;;
17604;SDS011;8921;50.964;6.800;2023-09-12T10:13:53;10.10;;;5.17;;
17604;SDS011;8921;50.964;6.800;2023-09-12T10:16:24;10.27;;;5.33;;
17604;SDS011;8921;50.964;6.800;2023-09-12T10:18:56;9.67;;;4.90;;
17604;SDS011;8921;50.964;6.800;2023-09-12T10:21:26;6.23;;;3.33;;
17604;SDS011;8921;50.964;6.800;2023-09-12T10:23:51;6.60;;;3.17;;
17604;SDS011;8921;50.964;6.800;2023-09-12T10:26:20;7.60;;;3.80;;
17604;SDS011;8921;50.964;6.800;2023-09-12T10:28:48;6.77;;;3.53;;
17604;SDS011;8921;50.964;6.800;2023-09-12T10:31:16;7.10;;;4.70;;
17604;SDS011;8921;50.964;6.800;2023-09-12T10:33:44;12.83;;;5.80;;
17604;SDS011;8921;50.964;6.800;2023-09-12T10:36:13;8.60;;;4.60;;
17604;SDS011;8921;50.964;6.800;2023-09-12T10:38:44;7.70;;;4.33;;
17604;SDS011;8921;50.964;6.800;2023-09-12T10:41:12;12.00;;;4.40;;
17604;SDS011;8921;50.964;6.800;2023-09-12T10:43:41;8.47;;;4.97;;
17604;SDS011;8921;50.964;6.800;2023-09-12T10:46:09;8.57;;;4.23;;
17604;SDS011;8921;50.964;6.800;2023-09-12T10:48:37;10.53;;;5.13;;
17604;SDS011;8921;50.964;6.800;2023-09-12T10:51:09;10.20;;;5.87;;
17604;SDS011;8921;50.964;6.800;2023-09-12T10:53:37;7.47;;;4.27;;
17604;SDS011;8921;50.964;6.800;2023-09-12T11:01:39;12.00;;;4.60;;
17604;SDS011;8921;50.964;6.800;2023-09-12T11:06:50;7.83;;;4.97;;
17604;SDS011;8921;50.964;6.800;2023-09-12T11:11:47;9.10;;;4.10;;
17604;SDS011;8921;50.964;6.800;2023-09-12T11:14:14;7.80;;;4.47;;
17604;SDS011;8921;50.964;6.800;2023-09-12T11:16:42;8.60;;;5.40;;
17604;SDS011;8921;50.964;6.800;2023-09-12T11:21:45;13.07;;;5.30;;
17604;SDS011;8921;50.964;6.800;2023-09-12T11:24:13;11.97;;;5.13;;
17604;SDS011;8921;50.964;6.800;2023-09-12T11:27:00;7.57;;;4.50;;
17604;SDS011;8921;50.964;6.800;2023-09-12T11:29:29;13.13;;;6.03;;
17604;SDS011;8921;50.964;6.800;2023-09-12T11:31:57;8.60;;;5.50;;
17604;SDS011;8921;50.964;6.800;2023-09-12T11:34:27;12.17;;;5.40;;
17604;SDS011;8921;50.964;6.800;2023-09-12T11:36:56;10.30;;;6.30;;
17604;SDS011;8921;50.964;6.800;2023-09-12T11:39:28;9.73;;;6.00;;
17604;SDS011;8921;50.964;6.800;2023-09-12T11:41:58;10.33;;;5.80;;
17604;SDS011;8921;50.964;6.800;2023-09-12T11:44:26;9.67;;;6.83;;
17604;SDS011;8921;50.964;6.800;2023-09-12T11:46:54;8.17;;;4.87;;
17604;SDS011;8921;50.964;6.800;2023-09-12T11:49:23;10.77;;;6.03;;
17604;SDS011;8921;50.964;6.800;2023-09-12T11:51:51;7.93;;;5.43;;
17604;SDS011;8921;50.964;6.800;2023-09-12T11:54:25;8.93;;;5.77;;
17604;SDS011;8921;50.964;6.800;2023-09-12T11:56:53;10.20;;;4.90;;
17604;SDS011;8921;50.964;6.800;2023-09-12T11:59:28;7.77;;;5.30;;
17604;SDS011;8921;50.964;6.800;2023-09-12T12:01:56;12.73;;;7.10;;
17604;SDS011;8921;50.964;6.800;2023-09-12T12:04:24;8.67;;;5.93;;
17604;SDS011;8921;50.964;6.800;2023-09-12T12:06:52;10.13;;;6.03;;
17604;SDS011;8921;50.964;6.800;2023-09-12T12:09:20;8.50;;;5.97;;
17604;SDS011;8921;50.964;6.800;2023-09-12T12:11:49;11.40;;;5.40;;
17604;SDS011;8921;50.964;6.800;2023-09-12T12:14:17;9.57;;;5.10;;
17604;SDS011;8921;50.964;6.800;2023-09-12T12:16:46;9.53;;;4.70;;
17604;SDS011;8921;50.964;6.800;2023-09-12T12:19:14;10.50;;;4.43;;
17604;SDS011;8921;50.964;6.800;2023-09-12T12:21:42;12.03;;;5.00;;
17604;SDS011;8921;50.964;6.800;2023-09-12T12:24:11;9.23;;;4.93;;
17604;SDS011;8921;50.964;6.800;2023-09-12T12:26:42;7.60;;;4.70;;
17604;SDS011;8921;50.964;6.800;2023-09-12T12:29:10;7.53;;;4.90;;
17604;SDS011;8921;50.964;6.800;2023-09-12T12:31:38;9.63;;;4.60;;
17604;SDS011;8921;50.964;6.800;2023-09-12T12:34:06;8.60;;;5.80;;
17604;SDS011;8921;50.964;6.800;2023-09-12T12:36:40;10.40;;;5.50;;
17604;SDS011;8921;50.964;6.800;2023-09-12T12:39:02;12.70;;;5.50;;
17604;SDS011;8921;50.964;6.800;2023-09-12T12:41:31;13.60;;;7.60;;
17604;SDS011;8921;50.964;6.800;2023-09-12T12:43:59;12.50;;;6.47;;
17604;SDS011;8921;50.964;6.800;2023-09-12T12:46:27;9.27;;;6.00;;
17604;SDS011;8921;50.964;6.800;2023-09-12T12:48:55;7.83;;;5.00;;
17604;SDS011;8921;50.964;6.800;2023-09-12T12:51:24;10.50;;;5.27;;
17604;SDS011;8921;50.964;6.800;2023-09-12T12:53:53;8.13;;;5.70;;
17604;SDS011;8921;50.964;6.800;2023-09-12T12:56:22;9.77;;;4.90;;
17604;SDS011;8921;50.964;6.800;2023-09-12T12:58:52;8.40;;;5.10;;
17604;SDS011;8921;50.964;6.800;2023-09-12T13:01:20;14.17;;;4.80;;
17604;SDS011;8921;50.964;6.800;2023-09-12T13:03:48;13.30;;;4.20;;
17604;SDS011;8921;50.964;6.800;2023-09-12T13:06:17;21.03;;;5.67;;
17604;SDS011;8921;50.964;6.800;2023-09-12T13:08:45;7.37;;;4.90;;
17604;SDS011;8921;50.964;6.800;2023-09-12T13:11:13;9.43;;;4.97;;
17604;SDS011;8921;50.964;6.800;2023-09-12T13:13:41;8.37;;;4.47;;
17604;SDS011;8921;50.964;6.800;2023-09-12T13:16:10;7.60;;;4.53;;
17604;SDS011;8921;50.964;6.800;2023-09-12T13:18:38;11.40;;;5.10;;
17604;SDS011;8921;50.964;6.800;2023-09-12T13:21:06;16.60;;;5.83;;
17604;SDS011;8921;50.964;6.800;2023-09-12T13:23:35;15.40;;;5.33;;
17604;SDS011;8921;50.964;6.800;2023-09-12T13:26:03;12.50;;;5.33;;
17604;SDS011;8921;50.964;6.800;2023-09-12T13:28:31;8.20;;;5.10;;
17604;SDS011;8921;50.964;6.800;2023-09-12T13:30:59;12.60;;;5.57;;
17604;SDS011;8921;50.964;6.800;2023-09-12T13:33:27;8.23;;;4.67;;
17604;SDS011;8921;50.964;6.800;2023-09-12T13:35:55;8.80;;;5.30;;
17604;SDS011;8921;50.964;6.800;2023-09-12T13:38:24;12.50;;;4.77;;
17604;SDS011;8921;50.964;6.800;2023-09-12T13:40:52;9.90;;;6.40;;
17604;SDS011;8921;50.964;6.800;2023-09-12T13:43:20;24.07;;;5.97;;
17604;SDS011;8921;50.964;6.800;2023-09-12T13:45:48;7.77;;;4.40;;
17604;SDS011;8921;50.964;6.800;2023-09-12T13:48:17;11.27;;;6.00;;
17604;SDS011;8921;50.964;6.800;2023-09-12T13:50:45;7.50;;;5.30;;
17604;SDS011;8921;50.964;6.800;2023-09-12T13:53:13;11.50;;;5.60;;
17604;SDS011;8921;50.964;6.800;2023-09-12T13:55:42;10.50;;;4.90;;
17604;SDS011;8921;50.964;6.800;2023-09-12T13:58:10;7.80;;;4.80;;
17604;SDS011;8921;50.964;6.800;2023-09-12T14:00:38;9.10;;;5.70;;
17604;SDS011;8921;50.964;6.800;2023-09-12T14:03:06;11.43;;;6.30;;
17604;SDS011;8921;50.964;6.800;2023-09-12T14:05:35;11.30;;;5.90;;
17604;SDS011;8921;50.964;6.800;2023-09-12T14:08:03;11.83;;;6.70;;
17604;SDS011;8921;50.964;6.800;2023-09-12T14:10:31;13.30;;;6.23;;
17604;SDS011;8921;50.964;6.800;2023-09-12T14:13:00;10.87;;;6.40;;
17604;SDS011;8921;50.964;6.800;2023-09-12T14:15:28;10.60;;;6.60;;
17604;SDS011;8921;50.964;6.800;2023-09-12T14:17:56;11.30;;;6.30;;
17604;SDS011;8921;50.964;6.800;2023-09-12T14:20:24;20.63;;;7.37;;
17604;SDS011;8921;50.964;6.800;2023-09-12T14:22:53;12.00;;;7.27;;
17604;SDS011;8921;50.964;6.800;2023-09-12T14:25:21;11.60;;;6.50;;
17604;SDS011;8921;50.964;6.800;2023-09-12T14:27:49;10.23;;;5.63;;
17604;SDS011;8921;50.964;6.800;2023-09-12T14:30:18;13.13;;;6.00;;
17604;SDS011;8921;50.964;6.800;2023-09-12T14:32:46;12.30;;;6.47;;
17604;SDS011;8921;50.964;6.800;2023-09-12T14:35:14;11.30;;;6.47;;
17604;SDS011;8921;50.964;6.800;2023-09-12T14:37:42;10.87;;;6.53;;
17604;SDS011;8921;50.964;6.800;2023-09-12T14:40:12;10.00;;;6.40;;
17604;SDS011;8921;50.964;6.800;2023-09-12T14:42:39;11.33;;;5.60;;
17604;SDS011;8921;50.964;6.800;2023-09-12T14:45:08;11.20;;;6.43;;
17604;SDS011;8921;50.964;6.800;2023-09-12T14:47:36;8.97;;;5.97;;
17604;SDS011;8921;50.964;6.800;2023-09-12T14:50:04;9.97;;;5.60;;
17604;SDS011;8921;50.964;6.800;2023-09-12T14:52:33;8.13;;;5.83;;
17604;SDS011;8921;50.964;6.800;2023-09-12T14:55:01;10.80;;;6.93;;
17604;SDS011;8921;50.964;6.800;2023-09-12T14:57:29;12.67;;;6.13;;
17604;SDS011;8921;50.964;6.800;2023-09-12T14:59:58;9.73;;;6.73;;
17604;SDS011;8921;50.964;6.800;2023-09-12T15:02:26;15.27;;;7.27;;
17604;SDS011;8921;50.964;6.800;2023-09-12T15:04:54;8.53;;;5.40;;
17604;SDS011;8921;50.964;6.800;2023-09-12T15:07:22;11.37;;;6.40;;